sensor_id;sensor_type;location;lat;lon;timestamp;pressure;altitude;pressure_sealevel;temperature;humidity
10115;BME280;5097;43.260;27.812;2022-11-18T00:02:13;99140.34;;;11.69;70.55
10115;BME280;5097;43.260;27.812;2022-11-18T00:04:57;99120.03;;;11.70;70.17
10115;BME280;5097;43.260;27.812;2022-11-18T00:07:41;99145.00;;;11.66;70.60
10115;BME280;5097;43.260;27.812;2022-11-18T00:10:26;99142.81;;;11.84;70.25
10115;BME280;5097;43.260;27.812;2022-11-18T00:13:10;99141.84;;;11.85;69.74
10115;BME280;5097;43.260;27.812;2022-11-18T00:16:12;99006.72;;;10.80;70.66
10115;BME280;5097;43.260;27.812;2022-11-18T00:18:56;99144.06;;;11.67;70.40
10115;BME280;5097;43.260;27.812;2022-11-18T00:21:40;99132.16;;;11.24;71.75
10115;BME280;5097;43.260;27.812;2022-11-18T00:24:24;99153.88;;;11.40;71.05
10115;BME280;5097;43.260;27.812;2022-11-18T00:27:09;99122.66;;;11.46;70.55
10115;BME280;5097;43.260;27.812;2022-11-18T00:29:53;99148.06;;;11.72;69.90
10115;BME280;5097;43.260;27.812;2022-11-18T00:32:37;99153.78;;;11.42;70.90
10115;BME280;5097;43.260;27.812;2022-11-18T00:35:21;99156.75;;;11.37;71.00
10115;BME280;5097;43.260;27.812;2022-11-18T00:38:04;99149.09;;;11.21;71.65
10115;BME280;5097;43.260;27.812;2022-11-18T00:40:48;99154.50;;;11.20;71.97
10115;BME280;5097;43.260;27.812;2022-11-18T00:43:34;99158.19;;;11.04;72.53
10115;BME280;5097;43.260;27.812;2022-11-18T00:46:17;99118.69;;;10.90;71.94
10115;BME280;5097;43.260;27.812;2022-11-18T00:49:01;99153.56;;;10.95;72.86
10115;BME280;5097;43.260;27.812;2022-11-18T00:51:44;99165.31;;;11.04;72.37
10115;BME280;5097;43.260;27.812;2022-11-18T00:54:28;99167.94;;;10.91;72.05
10115;BME280;5097;43.260;27.812;2022-11-18T00:57:13;99168.25;;;10.99;72.76
10115;BME280;5097;43.260;27.812;2022-11-18T00:59:58;99116.69;;;10.81;72.22
10115;BME280;5097;43.260;27.812;2022-11-18T01:02:44;99162.44;;;11.07;72.16
10115;BME280;5097;43.260;27.812;2022-11-18T01:05:28;99156.66;;;10.89;72.27
10115;BME280;5097;43.260;27.812;2022-11-18T01:08:12;99164.47;;;10.78;72.79
10115;BME280;5097;43.260;27.812;2022-11-18T01:10:56;99166.47;;;10.74;72.69
10115;BME280;5097;43.260;27.812;2022-11-18T01:14:01;99136.06;;;10.43;73.09
10115;BME280;5097;43.260;27.812;2022-11-18T01:16:45;99165.81;;;10.45;73.57
10115;BME280;5097;43.260;27.812;2022-11-18T01:19:32;99160.59;;;10.17;74.36
10115;BME280;5097;43.260;27.812;2022-11-18T01:22:17;99171.00;;;9.93;75.35
10115;BME280;5097;43.260;27.812;2022-11-18T01:25:01;99166.44;;;9.95;75.25
10115;BME280;5097;43.260;27.812;2022-11-18T01:27:45;99162.31;;;9.91;75.63
10115;BME280;5097;43.260;27.812;2022-11-18T01:30:31;99169.44;;;10.03;75.29
10115;BME280;5097;43.260;27.812;2022-11-18T01:33:16;99149.66;;;9.96;74.89
10115;BME280;5097;43.260;27.812;2022-11-18T01:36:00;99163.00;;;10.07;74.58
10115;BME280;5097;43.260;27.812;2022-11-18T01:38:44;99156.75;;;10.09;74.45
10115;BME280;5097;43.260;27.812;2022-11-18T01:41:28;99160.28;;;10.22;74.03
10115;BME280;5097;43.260;27.812;2022-11-18T01:47:30;99147.72;;;10.26;73.55
10115;BME280;5097;43.260;27.812;2022-11-18T01:50:18;99141.00;;;10.34;72.91
10115;BME280;5097;43.260;27.812;2022-11-18T01:53:08;99135.66;;;10.09;73.28
10115;BME280;5097;43.260;27.812;2022-11-18T01:55:55;99145.47;;;10.06;73.56
10115;BME280;5097;43.260;27.812;2022-11-18T01:58:44;99145.09;;;10.26;73.34
10115;BME280;5097;43.260;27.812;2022-11-18T02:01:30;99148.59;;;10.26;73.01
10115;BME280;5097;43.260;27.812;2022-11-18T02:04:14;99139.16;;;10.22;72.77
10115;BME280;5097;43.260;27.812;2022-11-18T02:06:59;99145.94;;;10.26;72.64
10115;BME280;5097;43.260;27.812;2022-11-18T02:09:43;99116.56;;;10.18;72.62
10115;BME280;5097;43.260;27.812;2022-11-18T02:12:26;99139.16;;;10.22;72.90
10115;BME280;5097;43.260;27.812;2022-11-18T02:15:10;99137.50;;;10.21;72.56
10115;BME280;5097;43.260;27.812;2022-11-18T02:17:58;99107.41;;;9.70;72.97
10115;BME280;5097;43.260;27.812;2022-11-18T02:20:48;99129.38;;;9.84;73.82
10115;BME280;5097;43.260;27.812;2022-11-18T02:24:05;99138.94;;;9.72;74.39
10115;BME280;5097;43.260;27.812;2022-11-18T02:27:31;99134.66;;;9.84;73.83
10115;BME280;5097;43.260;27.812;2022-11-18T02:30:24;99140.94;;;9.68;74.44
10115;BME280;5097;43.260;27.812;2022-11-18T02:33:10;99141.63;;;9.85;73.95
10115;BME280;5097;43.260;27.812;2022-11-18T02:35:57;99147.28;;;9.66;74.44
10115;BME280;5097;43.260;27.812;2022-11-18T02:38:45;99123.94;;;9.60;73.57
10115;BME280;5097;43.260;27.812;2022-11-18T02:41:33;99142.38;;;9.87;73.47
10115;BME280;5097;43.260;27.812;2022-11-18T02:44:19;99144.44;;;10.09;72.61
10115;BME280;5097;43.260;27.812;2022-11-18T02:47:08;99142.53;;;10.11;72.87
10115;BME280;5097;43.260;27.812;2022-11-18T02:49:58;99124.97;;;9.97;72.27
10115;BME280;5097;43.260;27.812;2022-11-18T02:52:45;99139.59;;;10.16;71.99
10115;BME280;5097;43.260;27.812;2022-11-18T02:55:33;99139.66;;;10.01;72.58
10115;BME280;5097;43.260;27.812;2022-11-18T02:58:19;99100.19;;;9.60;73.10
10115;BME280;5097;43.260;27.812;2022-11-18T03:01:03;99096.84;;;9.70;72.77
10115;BME280;5097;43.260;27.812;2022-11-18T03:03:49;99141.31;;;9.77;74.05
10115;BME280;5097;43.260;27.812;2022-11-18T03:06:35;99142.94;;;10.05;73.22
10115;BME280;5097;43.260;27.812;2022-11-18T03:09:23;99142.38;;;9.87;73.50
10115;BME280;5097;43.260;27.812;2022-11-18T03:12:17;99138.69;;;9.89;72.98
10115;BME280;5097;43.260;27.812;2022-11-18T03:15:10;99129.78;;;9.78;73.36
10115;BME280;5097;43.260;27.812;2022-11-18T03:18:05;99152.09;;;9.86;73.11
10115;BME280;5097;43.260;27.812;2022-11-18T03:20:57;99158.94;;;9.89;73.41
10115;BME280;5097;43.260;27.812;2022-11-18T03:23:50;99159.44;;;9.81;73.59
10115;BME280;5097;43.260;27.812;2022-11-18T03:26:39;99160.28;;;9.82;73.77
10115;BME280;5097;43.260;27.812;2022-11-18T03:29:31;99160.38;;;9.80;73.55
10115;BME280;5097;43.260;27.812;2022-11-18T03:32:19;99166.25;;;9.71;73.98
10115;BME280;5097;43.260;27.812;2022-11-18T03:35:07;99160.44;;;9.38;74.75
10115;BME280;5097;43.260;27.812;2022-11-18T03:37:59;99156.41;;;9.33;75.59
10115;BME280;5097;43.260;27.812;2022-11-18T03:40:49;99149.44;;;9.32;76.02
10115;BME280;5097;43.260;27.812;2022-11-18T03:43:38;99155.22;;;8.81;76.74
10115;BME280;5097;43.260;27.812;2022-11-18T03:46:27;99160.88;;;9.03;76.93
10115;BME280;5097;43.260;27.812;2022-11-18T03:49:19;99157.94;;;9.08;76.12
10115;BME280;5097;43.260;27.812;2022-11-18T03:52:06;99150.91;;;8.94;76.47
10115;BME280;5097;43.260;27.812;2022-11-18T03:54:55;99163.28;;;9.21;76.86
10115;BME280;5097;43.260;27.812;2022-11-18T03:57:45;99159.72;;;9.22;76.49
10115;BME280;5097;43.260;27.812;2022-11-18T04:00:36;99169.63;;;8.89;76.57
10115;BME280;5097;43.260;27.812;2022-11-18T04:03:20;99170.84;;;8.55;77.91
10115;BME280;5097;43.260;27.812;2022-11-18T04:06:12;99171.00;;;8.66;78.14
10115;BME280;5097;43.260;27.812;2022-11-18T04:09:00;99144.59;;;8.68;77.34
10115;BME280;5097;43.260;27.812;2022-11-18T04:11:51;99163.69;;;8.86;77.50
10115;BME280;5097;43.260;27.812;2022-11-18T04:14:46;99158.53;;;8.99;77.41
10115;BME280;5097;43.260;27.812;2022-11-18T04:17:31;99124.97;;;8.74;77.76
10115;BME280;5097;43.260;27.812;2022-11-18T04:20:16;99161.22;;;8.97;76.99
10115;BME280;5097;43.260;27.812;2022-11-18T04:23:00;99159.84;;;8.92;77.55
10115;BME280;5097;43.260;27.812;2022-11-18T04:25:45;99162.84;;;9.00;77.80
10115;BME280;5097;43.260;27.812;2022-11-18T04:28:30;99158.78;;;9.09;77.29
10115;BME280;5097;43.260;27.812;2022-11-18T04:31:13;99160.97;;;9.16;77.32
10115;BME280;5097;43.260;27.812;2022-11-18T04:33:57;99158.94;;;9.20;76.88
10115;BME280;5097;43.260;27.812;2022-11-18T04:36:41;99166.47;;;9.26;76.70
10115;BME280;5097;43.260;27.812;2022-11-18T04:39:25;99165.72;;;9.24;76.15
10115;BME280;5097;43.260;27.812;2022-11-18T04:42:08;99177.38;;;9.34;76.33
10115;BME280;5097;43.260;27.812;2022-11-18T04:44:53;99169.22;;;9.25;76.66
10115;BME280;5097;43.260;27.812;2022-11-18T04:47:37;99182.28;;;9.26;76.33
10115;BME280;5097;43.260;27.812;2022-11-18T04:50:23;99169.13;;;9.12;76.61
10115;BME280;5097;43.260;27.812;2022-11-18T04:53:07;99191.69;;;9.45;76.18
10115;BME280;5097;43.260;27.812;2022-11-18T04:55:51;99195.47;;;9.41;76.38
10115;BME280;5097;43.260;27.812;2022-11-18T04:58:35;99191.41;;;9.35;76.25
10115;BME280;5097;43.260;27.812;2022-11-18T05:01:20;99196.03;;;9.31;77.38
10115;BME280;5097;43.260;27.812;2022-11-18T05:04:05;99187.94;;;9.34;76.98
10115;BME280;5097;43.260;27.812;2022-11-18T05:06:49;99200.31;;;9.47;76.75
10115;BME280;5097;43.260;27.812;2022-11-18T05:09:33;99204.97;;;9.43;76.99
10115;BME280;5097;43.260;27.812;2022-11-18T05:12:17;99200.78;;;9.53;77.29
10115;BME280;5097;43.260;27.812;2022-11-18T05:15:20;99162.34;;;9.36;77.38
10115;BME280;5097;43.260;27.812;2022-11-18T05:18:09;99200.47;;;9.72;77.14
10115;BME280;5097;43.260;27.812;2022-11-18T05:20:53;99188.31;;;9.70;76.65
10115;BME280;5097;43.260;27.812;2022-11-18T05:23:37;99164.97;;;9.36;77.02
10115;BME280;5097;43.260;27.812;2022-11-18T05:26:20;99188.22;;;9.30;78.52
10115;BME280;5097;43.260;27.812;2022-11-18T05:29:04;99196.75;;;9.48;78.62
10115;BME280;5097;43.260;27.812;2022-11-18T05:31:48;99193.28;;;9.75;77.86
10115;BME280;5097;43.260;27.812;2022-11-18T05:34:34;99174.28;;;9.69;77.06
10115;BME280;5097;43.260;27.812;2022-11-18T05:37:17;99208.13;;;9.90;77.54
10115;BME280;5097;43.260;27.812;2022-11-18T05:40:01;99198.59;;;10.15;76.86
10115;BME280;5097;43.260;27.812;2022-11-18T05:42:45;99175.88;;;9.99;76.90
10115;BME280;5097;43.260;27.812;2022-11-18T05:45:49;99204.41;;;10.20;77.26
10115;BME280;5097;43.260;27.812;2022-11-18T05:48:33;99199.72;;;10.38;76.90
10115;BME280;5097;43.260;27.812;2022-11-18T05:51:18;99195.22;;;10.53;76.30
10115;BME280;5097;43.260;27.812;2022-11-18T05:54:03;99196.50;;;10.73;75.57
10115;BME280;5097;43.260;27.812;2022-11-18T05:56:49;99212.88;;;10.91;75.75
10115;BME280;5097;43.260;27.812;2022-11-18T05:59:33;99208.31;;;11.06;75.50
10115;BME280;5097;43.260;27.812;2022-11-18T06:02:20;99206.91;;;11.26;74.74
10115;BME280;5097;43.260;27.812;2022-11-18T06:05:06;99209.75;;;11.36;74.71
10115;BME280;5097;43.260;27.812;2022-11-18T06:07:54;99204.03;;;11.42;75.33
10115;BME280;5097;43.260;27.812;2022-11-18T06:10:41;99201.22;;;11.56;75.15
10115;BME280;5097;43.260;27.812;2022-11-18T06:13:28;99185.63;;;11.28;76.49
10115;BME280;5097;43.260;27.812;2022-11-18T06:16:14;99206.44;;;11.45;76.98
10115;BME280;5097;43.260;27.812;2022-11-18T06:18:58;99208.50;;;11.66;77.07
10115;BME280;5097;43.260;27.812;2022-11-18T06:21:42;99214.31;;;11.71;75.96
10115;BME280;5097;43.260;27.812;2022-11-18T06:24:28;99217.41;;;11.89;75.58
10115;BME280;5097;43.260;27.812;2022-11-18T06:27:12;99191.69;;;12.15;75.01
10115;BME280;5097;43.260;27.812;2022-11-18T06:29:57;99188.31;;;12.49;73.64
10115;BME280;5097;43.260;27.812;2022-11-18T06:32:41;99200.41;;;12.76;72.47
10115;BME280;5097;43.260;27.812;2022-11-18T06:35:25;99195.34;;;12.84;71.65
10115;BME280;5097;43.260;27.812;2022-11-18T06:38:09;99215.63;;;13.07;72.19
10115;BME280;5097;43.260;27.812;2022-11-18T06:40:57;99219.94;;;13.20;72.15
10115;BME280;5097;43.260;27.812;2022-11-18T06:43:41;99215.16;;;13.36;71.02
10115;BME280;5097;43.260;27.812;2022-11-18T06:46:25;99217.16;;;13.55;69.62
10115;BME280;5097;43.260;27.812;2022-11-18T06:49:26;99217.50;;;13.73;68.78
10115;BME280;5097;43.260;27.812;2022-11-18T06:52:10;99201.47;;;13.75;68.15
10115;BME280;5097;43.260;27.812;2022-11-18T06:54:54;99210.44;;;14.06;67.46
10115;BME280;5097;43.260;27.812;2022-11-18T06:57:40;99203.81;;;14.22;67.56
10115;BME280;5097;43.260;27.812;2022-11-18T07:00:24;99210.53;;;14.37;66.67
10115;BME280;5097;43.260;27.812;2022-11-18T07:03:07;99192.78;;;14.59;65.69
10115;BME280;5097;43.260;27.812;2022-11-18T07:05:51;99199.91;;;14.80;65.19
10115;BME280;5097;43.260;27.812;2022-11-18T07:08:36;99197.91;;;14.51;64.35
10115;BME280;5097;43.260;27.812;2022-11-18T07:11:21;99189.69;;;14.75;65.12
10115;BME280;5097;43.260;27.812;2022-11-18T07:14:07;99188.16;;;14.82;65.33
10115;BME280;5097;43.260;27.812;2022-11-18T07:16:51;99183.78;;;14.71;66.17
10115;BME280;5097;43.260;27.812;2022-11-18T07:19:35;99187.53;;;14.90;65.42
10115;BME280;5097;43.260;27.812;2022-11-18T07:22:19;99193.19;;;14.75;65.74
10115;BME280;5097;43.260;27.812;2022-11-18T07:25:03;99182.38;;;14.98;65.77
10115;BME280;5097;43.260;27.812;2022-11-18T07:27:47;99183.50;;;15.05;66.21
10115;BME280;5097;43.260;27.812;2022-11-18T07:30:32;99194.53;;;14.91;67.92
10115;BME280;5097;43.260;27.812;2022-11-18T07:33:16;99186.56;;;14.91;69.42
10115;BME280;5097;43.260;27.812;2022-11-18T07:36:00;99150.44;;;14.88;69.66
10115;BME280;5097;43.260;27.812;2022-11-18T07:38:45;99180.97;;;14.94;70.49
10115;BME280;5097;43.260;27.812;2022-11-18T07:41:29;99141.06;;;14.63;70.02
10115;BME280;5097;43.260;27.812;2022-11-18T07:44:13;99182.09;;;15.01;69.52
10115;BME280;5097;43.260;27.812;2022-11-18T07:47:00;99154.88;;;14.88;69.07
10115;BME280;5097;43.260;27.812;2022-11-18T07:49:44;99175.44;;;15.07;69.09
10115;BME280;5097;43.260;27.812;2022-11-18T07:52:28;99181.97;;;15.03;69.65
10115;BME280;5097;43.260;27.812;2022-11-18T07:55:11;99169.34;;;15.36;68.14
10115;BME280;5097;43.260;27.812;2022-11-18T07:57:55;99169.03;;;15.19;68.55
10115;BME280;5097;43.260;27.812;2022-11-18T08:00:39;99180.53;;;14.99;69.13
10115;BME280;5097;43.260;27.812;2022-11-18T08:03:28;99146.47;;;14.83;69.63
10115;BME280;5097;43.260;27.812;2022-11-18T08:06:14;99166.69;;;14.95;69.72
10115;BME280;5097;43.260;27.812;2022-11-18T08:08:58;99175.47;;;15.17;70.07
10115;BME280;5097;43.260;27.812;2022-11-18T08:11:42;99156.25;;;15.13;70.80
10115;BME280;5097;43.260;27.812;2022-11-18T08:14:26;99183.97;;;15.61;70.10
10115;BME280;5097;43.260;27.812;2022-11-18T08:17:10;99154.03;;;15.88;69.44
10115;BME280;5097;43.260;27.812;2022-11-18T08:19:56;99168.91;;;16.30;67.71
10115;BME280;5097;43.260;27.812;2022-11-18T08:22:40;99171.63;;;16.78;66.77
10115;BME280;5097;43.260;27.812;2022-11-18T08:25:24;99156.16;;;16.91;65.60
10115;BME280;5097;43.260;27.812;2022-11-18T08:28:09;99179.34;;;17.18;64.62
10115;BME280;5097;43.260;27.812;2022-11-18T08:30:53;99167.31;;;17.60;63.73
10115;BME280;5097;43.260;27.812;2022-11-18T08:33:37;99182.50;;;18.05;62.38
10115;BME280;5097;43.260;27.812;2022-11-18T08:36:24;99170.44;;;18.01;62.69
10115;BME280;5097;43.260;27.812;2022-11-18T08:39:10;99186.13;;;18.40;61.70
10115;BME280;5097;43.260;27.812;2022-11-18T08:41:57;99168.88;;;18.35;61.77
10115;BME280;5097;43.260;27.812;2022-11-18T08:44:41;99185.53;;;18.47;61.35
10115;BME280;5097;43.260;27.812;2022-11-18T08:47:24;99183.47;;;17.86;61.68
10115;BME280;5097;43.260;27.812;2022-11-18T08:50:10;99182.75;;;17.66;63.08
10115;BME280;5097;43.260;27.812;2022-11-18T08:52:55;99182.63;;;17.86;62.99
10115;BME280;5097;43.260;27.812;2022-11-18T08:55:39;99176.56;;;18.12;61.41
10115;BME280;5097;43.260;27.812;2022-11-18T08:58:23;99178.78;;;17.70;62.84
10115;BME280;5097;43.260;27.812;2022-11-18T09:01:07;99177.34;;;17.76;62.81
10115;BME280;5097;43.260;27.812;2022-11-18T09:03:51;99172.22;;;17.83;62.75
10115;BME280;5097;43.260;27.812;2022-11-18T09:06:35;99174.88;;;17.92;63.07
10115;BME280;5097;43.260;27.812;2022-11-18T09:09:23;99173.47;;;17.88;62.75
10115;BME280;5097;43.260;27.812;2022-11-18T09:12:07;99176.25;;;17.97;63.31
10115;BME280;5097;43.260;27.812;2022-11-18T09:14:51;99174.19;;;18.08;63.25
10115;BME280;5097;43.260;27.812;2022-11-18T09:17:55;99164.56;;;18.16;63.04
10115;BME280;5097;43.260;27.812;2022-11-18T09:20:39;99163.03;;;18.31;62.68
10115;BME280;5097;43.260;27.812;2022-11-18T09:23:23;99126.03;;;18.45;62.01
10115;BME280;5097;43.260;27.812;2022-11-18T09:26:10;99157.31;;;18.08;63.73
10115;BME280;5097;43.260;27.812;2022-11-18T09:28:55;99121.47;;;18.37;61.60
10115;BME280;5097;43.260;27.812;2022-11-18T09:31:39;99154.25;;;18.91;61.65
10115;BME280;5097;43.260;27.812;2022-11-18T09:34:23;99131.97;;;19.25;59.24
10115;BME280;5097;43.260;27.812;2022-11-18T09:37:06;99137.16;;;19.27;60.29
10115;BME280;5097;43.260;27.812;2022-11-18T09:39:50;99124.31;;;18.96;61.32
10115;BME280;5097;43.260;27.812;2022-11-18T09:42:49;99117.78;;;18.90;61.68
10115;BME280;5097;43.260;27.812;2022-11-18T09:45:38;99120.47;;;19.41;60.61
10115;BME280;5097;43.260;27.812;2022-11-18T09:48:27;99114.94;;;19.35;60.39
10115;BME280;5097;43.260;27.812;2022-11-18T09:51:27;99107.66;;;19.11;61.44
10115;BME280;5097;43.260;27.812;2022-11-18T09:54:19;99105.97;;;18.75;61.28
10115;BME280;5097;43.260;27.812;2022-11-18T09:57:10;99105.25;;;18.99;61.57
10115;BME280;5097;43.260;27.812;2022-11-18T09:59:59;99100.75;;;19.00;61.16
10115;BME280;5097;43.260;27.812;2022-11-18T10:02:58;99066.28;;;18.62;61.71
10115;BME280;5097;43.260;27.812;2022-11-18T10:05:47;99069.72;;;18.46;62.75
10115;BME280;5097;43.260;27.812;2022-11-18T10:08:36;99100.63;;;19.09;60.81
10115;BME280;5097;43.260;27.812;2022-11-18T10:11:23;99086.91;;;18.43;63.29
10115;BME280;5097;43.260;27.812;2022-11-18T10:14:18;99090.59;;;18.77;63.48
10115;BME280;5097;43.260;27.812;2022-11-18T10:17:18;99055.97;;;18.75;62.99
10115;BME280;5097;43.260;27.812;2022-11-18T10:20:21;99057.16;;;19.16;61.26
10115;BME280;5097;43.260;27.812;2022-11-18T10:23:13;99069.84;;;19.05;62.11
10115;BME280;5097;43.260;27.812;2022-11-18T10:25:58;99060.00;;;18.80;63.05
10115;BME280;5097;43.260;27.812;2022-11-18T10:28:42;99053.22;;;18.59;64.10
10115;BME280;5097;43.260;27.812;2022-11-18T10:31:26;99041.19;;;18.63;64.17
10115;BME280;5097;43.260;27.812;2022-11-18T10:34:13;99067.13;;;18.63;64.25
10115;BME280;5097;43.260;27.812;2022-11-18T10:37:04;99059.31;;;18.43;66.02
10115;BME280;5097;43.260;27.812;2022-11-18T10:39:49;99056.66;;;18.77;63.90
10115;BME280;5097;43.260;27.812;2022-11-18T10:42:36;99055.66;;;18.79;64.02
10115;BME280;5097;43.260;27.812;2022-11-18T10:45:25;99053.72;;;18.89;64.08
10115;BME280;5097;43.260;27.812;2022-11-18T10:48:16;99054.16;;;19.19;62.74
10115;BME280;5097;43.260;27.812;2022-11-18T10:51:19;99051.97;;;18.80;63.70
10115;BME280;5097;43.260;27.812;2022-11-18T10:54:07;99055.66;;;18.79;64.02
10115;BME280;5097;43.260;27.812;2022-11-18T10:56:53;99038.78;;;18.43;64.65
10115;BME280;5097;43.260;27.812;2022-11-18T10:59:44;99062.94;;;18.68;65.17
10115;BME280;5097;43.260;27.812;2022-11-18T11:02:30;99061.88;;;18.53;64.94
10115;BME280;5097;43.260;27.812;2022-11-18T11:05:16;99059.44;;;18.94;64.13
10115;BME280;5097;43.260;27.812;2022-11-18T11:08:05;99058.16;;;19.23;63.25
10115;BME280;5097;43.260;27.812;2022-11-18T11:11:22;99057.25;;;19.65;62.43
10115;BME280;5097;43.260;27.812;2022-11-18T11:14:15;99052.53;;;19.67;61.63
10115;BME280;5097;43.260;27.812;2022-11-18T11:17:07;99052.47;;;19.18;63.19
10115;BME280;5097;43.260;27.812;2022-11-18T11:20:00;99051.19;;;19.38;62.90
10115;BME280;5097;43.260;27.812;2022-11-18T11:22:45;99042.81;;;18.82;64.36
10115;BME280;5097;43.260;27.812;2022-11-18T11:25:35;99044.72;;;18.98;65.07
10115;BME280;5097;43.260;27.812;2022-11-18T11:28:49;99035.06;;;18.79;65.17
10115;BME280;5097;43.260;27.812;2022-11-18T11:31:43;99032.06;;;18.74;65.25
10115;BME280;5097;43.260;27.812;2022-11-18T11:34:34;99020.03;;;18.78;65.62
10115;BME280;5097;43.260;27.812;2022-11-18T11:37:28;99013.16;;;18.67;65.47
10115;BME280;5097;43.260;27.812;2022-11-18T11:40:24;98962.16;;;18.26;66.61
10115;BME280;5097;43.260;27.812;2022-11-18T11:43:22;98974.03;;;18.74;65.02
10115;BME280;5097;43.260;27.812;2022-11-18T11:46:18;98969.44;;;18.50;65.55
10115;BME280;5097;43.260;27.812;2022-11-18T11:49:16;98968.34;;;18.69;64.58
10115;BME280;5097;43.260;27.812;2022-11-18T11:52:04;98955.72;;;18.96;64.58
10115;BME280;5097;43.260;27.812;2022-11-18T11:54:55;98988.19;;;18.93;65.24
10115;BME280;5097;43.260;27.812;2022-11-18T11:57:52;98961.69;;;18.82;64.48
10115;BME280;5097;43.260;27.812;2022-11-18T12:00:44;98955.66;;;18.80;65.26
10115;BME280;5097;43.260;27.812;2022-11-18T12:03:43;98933.16;;;18.99;64.92
10115;BME280;5097;43.260;27.812;2022-11-18T12:06:33;98924.50;;;18.54;65.94
10115;BME280;5097;43.260;27.812;2022-11-18T12:09:22;98956.25;;;19.08;65.21
10115;BME280;5097;43.260;27.812;2022-11-18T12:12:11;98963.81;;;19.21;64.72
10115;BME280;5097;43.260;27.812;2022-11-18T12:15:39;98958.22;;;18.47;67.68
10115;BME280;5097;43.260;27.812;2022-11-18T12:18:34;98920.44;;;18.41;67.31
10115;BME280;5097;43.260;27.812;2022-11-18T12:21:51;98953.69;;;18.90;66.64
10115;BME280;5097;43.260;27.812;2022-11-18T12:24:37;98912.25;;;18.43;67.69
10115;BME280;5097;43.260;27.812;2022-11-18T12:30:40;98947.88;;;18.52;68.68
10115;BME280;5097;43.260;27.812;2022-11-18T12:33:24;98954.22;;;18.51;68.70
10115;BME280;5097;43.260;27.812;2022-11-18T12:36:09;98947.56;;;18.55;68.97
10115;BME280;5097;43.260;27.812;2022-11-18T12:38:53;98934.72;;;18.67;68.39
10115;BME280;5097;43.260;27.812;2022-11-18T12:41:54;98931.94;;;18.85;67.49
10115;BME280;5097;43.260;27.812;2022-11-18T12:45:36;98929.63;;;18.90;67.53
10115;BME280;5097;43.260;27.812;2022-11-18T12:48:36;98926.63;;;19.01;67.09
10115;BME280;5097;43.260;27.812;2022-11-18T12:51:49;98914.25;;;19.00;66.53
10115;BME280;5097;43.260;27.812;2022-11-18T12:54:35;98903.53;;;19.00;66.05
10115;BME280;5097;43.260;27.812;2022-11-18T12:57:21;98925.97;;;19.07;66.38
10115;BME280;5097;43.260;27.812;2022-11-18T13:00:15;98916.38;;;18.80;67.52
10115;BME280;5097;43.260;27.812;2022-11-18T13:03:00;98890.03;;;18.51;68.17
10115;BME280;5097;43.260;27.812;2022-11-18T13:05:45;98915.53;;;18.71;67.87
10115;BME280;5097;43.260;27.812;2022-11-18T13:08:31;98894.59;;;18.67;67.37
10115;BME280;5097;43.260;27.812;2022-11-18T13:11:16;98910.66;;;18.75;67.56
10115;BME280;5097;43.260;27.812;2022-11-18T13:14:22;98935.84;;;18.48;68.17
10115;BME280;5097;43.260;27.812;2022-11-18T13:17:27;98940.22;;;18.57;68.17
10115;BME280;5097;43.260;27.812;2022-11-18T13:20:32;98874.78;;;17.92;68.71
10115;BME280;5097;43.260;27.812;2022-11-18T13:23:26;98931.72;;;18.27;69.38
10115;BME280;5097;43.260;27.812;2022-11-18T13:26:32;98926.66;;;18.07;70.05
10115;BME280;5097;43.260;27.812;2022-11-18T13:29:27;98887.69;;;17.97;69.54
10115;BME280;5097;43.260;27.812;2022-11-18T13:32:19;98879.53;;;18.06;69.38
10115;BME280;5097;43.260;27.812;2022-11-18T13:35:10;98921.56;;;18.31;69.25
10115;BME280;5097;43.260;27.812;2022-11-18T13:37:57;98893.66;;;18.25;68.86
10115;BME280;5097;43.260;27.812;2022-11-18T13:40:44;98932.00;;;18.50;68.54
10115;BME280;5097;43.260;27.812;2022-11-18T13:43:47;98931.13;;;18.41;69.05
10115;BME280;5097;43.260;27.812;2022-11-18T13:46:35;98904.19;;;18.26;69.18
10115;BME280;5097;43.260;27.812;2022-11-18T13:49:23;98925.56;;;18.26;69.80
10115;BME280;5097;43.260;27.812;2022-11-18T13:52:13;98860.38;;;17.85;69.71
10115;BME280;5097;43.260;27.812;2022-11-18T13:54:59;98917.34;;;18.20;69.97
10115;BME280;5097;43.260;27.812;2022-11-18T13:57:47;98897.50;;;17.96;70.54
10115;BME280;5097;43.260;27.812;2022-11-18T14:00:34;98936.38;;;18.17;70.75
10115;BME280;5097;43.260;27.812;2022-11-18T14:03:23;98905.75;;;17.76;71.33
10115;BME280;5097;43.260;27.812;2022-11-18T14:06:09;98924.31;;;18.04;71.66
10115;BME280;5097;43.260;27.812;2022-11-18T14:09:04;98925.97;;;18.05;71.78
10115;BME280;5097;43.260;27.812;2022-11-18T14:11:59;98928.59;;;17.97;72.47
10115;BME280;5097;43.260;27.812;2022-11-18T14:14:44;98921.28;;;17.99;71.54
10115;BME280;5097;43.260;27.812;2022-11-18T14:17:30;98922.72;;;17.93;72.60
10115;BME280;5097;43.260;27.812;2022-11-18T14:20:15;98894.81;;;17.62;73.31
10115;BME280;5097;43.260;27.812;2022-11-18T14:23:02;98888.72;;;17.07;76.10
10115;BME280;5097;43.260;27.812;2022-11-18T14:25:47;98875.97;;;16.83;78.03
10115;BME280;5097;43.260;27.812;2022-11-18T14:28:32;98877.50;;;16.85;78.06
10115;BME280;5097;43.260;27.812;2022-11-18T14:31:22;98913.13;;;17.12;77.14
10115;BME280;5097;43.260;27.812;2022-11-18T14:34:20;98908.66;;;16.67;79.86
10115;BME280;5097;43.260;27.812;2022-11-18T14:37:10;98907.66;;;16.86;79.19
10115;BME280;5097;43.260;27.812;2022-11-18T14:39:55;98871.81;;;16.06;83.98
10115;BME280;5097;43.260;27.812;2022-11-18T14:42:39;98907.88;;;16.56;82.12
10115;BME280;5097;43.260;27.812;2022-11-18T14:45:23;98913.31;;;16.37;84.33
10115;BME280;5097;43.260;27.812;2022-11-18T14:48:10;98912.16;;;16.39;84.62
10115;BME280;5097;43.260;27.812;2022-11-18T14:50:56;98895.53;;;16.00;87.10
10115;BME280;5097;43.260;27.812;2022-11-18T14:53:40;98889.69;;;15.76;88.48
10115;BME280;5097;43.260;27.812;2022-11-18T14:56:26;98886.03;;;15.97;88.76
10115;BME280;5097;43.260;27.812;2022-11-18T14:59:11;98885.94;;;16.17;87.08
10115;BME280;5097;43.260;27.812;2022-11-18T15:01:56;98882.56;;;16.15;86.89